sensor_id;sensor_type;location;lat;lon;timestamp;P1;durP1;ratioP1;P2;durP2;ratioP2
39094;SDS011;24840;47.508;19.376;2023-05-19T00:01:27;6.43;;;3.13;;
39094;SDS011;24840;47.508;19.376;2023-05-19T00:03:53;7.35;;;3.05;;
39094;SDS011;24840;47.508;19.376;2023-05-19T00:06:27;6.22;;;3.00;;
39094;SDS011;24840;47.508;19.376;2023-05-19T00:09:02;4.55;;;3.38;;
39094;SDS011;24840;47.508;19.376;2023-05-19T00:11:29;7.13;;;4.65;;
39094;SDS011;24840;47.508;19.376;2023-05-19T00:13:59;7.30;;;4.03;;
39094;SDS011;24840;47.508;19.376;2023-05-19T00:16:25;5.75;;;4.20;;
39094;SDS011;24840;47.508;19.376;2023-05-19T00:18:52;14.70;;;4.28;;
39094;SDS011;24840;47.508;19.376;2023-05-19T00:21:18;8.40;;;4.20;;
39094;SDS011;24840;47.508;19.376;2023-05-19T00:23:44;6.70;;;3.60;;
39094;SDS011;24840;47.508;19.376;2023-05-19T00:26:10;4.95;;;3.55;;
39094;SDS011;24840;47.508;19.376;2023-05-19T00:28:36;10.05;;;4.13;;
39094;SDS011;24840;47.508;19.376;2023-05-19T00:31:05;5.47;;;3.85;;
39094;SDS011;24840;47.508;19.376;2023-05-19T00:33:31;7.43;;;4.15;;
39094;SDS011;24840;47.508;19.376;2023-05-19T00:36:00;7.25;;;4.05;;
39094;SDS011;24840;47.508;19.376;2023-05-19T00:38:30;11.73;;;3.75;;
39094;SDS011;24840;47.508;19.376;2023-05-19T00:40:58;5.03;;;3.40;;
39094;SDS011;24840;47.508;19.376;2023-05-19T00:43:25;10.73;;;4.22;;
39094;SDS011;24840;47.508;19.376;2023-05-19T00:45:50;7.72;;;3.47;;
39094;SDS011;24840;47.508;19.376;2023-05-19T00:48:17;7.03;;;3.20;;
39094;SDS011;24840;47.508;19.376;2023-05-19T00:50:43;7.15;;;3.70;;
39094;SDS011;24840;47.508;19.376;2023-05-19T00:53:09;3.25;;;2.80;;
39094;SDS011;24840;47.508;19.376;2023-05-19T00:55:38;7.47;;;3.85;;
39094;SDS011;24840;47.508;19.376;2023-05-19T00:58:05;4.60;;;3.38;;
39094;SDS011;24840;47.508;19.376;2023-05-19T01:00:31;8.52;;;3.70;;
39094;SDS011;24840;47.508;19.376;2023-05-19T01:02:58;6.05;;;3.58;;
39094;SDS011;24840;47.508;19.376;2023-05-19T01:05:24;3.90;;;3.53;;
39094;SDS011;24840;47.508;19.376;2023-05-19T01:07:50;5.65;;;4.40;;
39094;SDS011;24840;47.508;19.376;2023-05-19T01:10:20;4.80;;;3.47;;
39094;SDS011;24840;47.508;19.376;2023-05-19T01:12:46;6.78;;;3.40;;
39094;SDS011;24840;47.508;19.376;2023-05-19T01:15:13;6.57;;;3.58;;
39094;SDS011;24840;47.508;19.376;2023-05-19T01:20:35;7.57;;;3.90;;
39094;SDS011;24840;47.508;19.376;2023-05-19T01:31:25;5.25;;;3.30;;
39094;SDS011;24840;47.508;19.376;2023-05-19T01:33:52;4.43;;;3.50;;
39094;SDS011;24840;47.508;19.376;2023-05-19T01:36:19;3.63;;;3.20;;
39094;SDS011;24840;47.508;19.376;2023-05-19T01:38:49;4.32;;;3.28;;
39094;SDS011;24840;47.508;19.376;2023-05-19T01:41:17;4.35;;;3.40;;
39094;SDS011;24840;47.508;19.376;2023-05-19T01:43:46;7.25;;;3.90;;
39094;SDS011;24840;47.508;19.376;2023-05-19T01:46:12;13.80;;;3.88;;
39094;SDS011;24840;47.508;19.376;2023-05-19T01:48:39;6.65;;;3.38;;
39094;SDS011;24840;47.508;19.376;2023-05-19T01:51:06;6.25;;;3.58;;
39094;SDS011;24840;47.508;19.376;2023-05-19T01:53:31;9.63;;;3.78;;
39094;SDS011;24840;47.508;19.376;2023-05-19T01:55:57;7.03;;;3.28;;
39094;SDS011;24840;47.508;19.376;2023-05-19T01:58:42;8.55;;;3.67;;
39094;SDS011;24840;47.508;19.376;2023-05-19T02:04:12;6.60;;;3.40;;
39094;SDS011;24840;47.508;19.376;2023-05-19T02:12:39;5.10;;;3.15;;
39094;SDS011;24840;47.508;19.376;2023-05-19T02:15:15;4.85;;;3.70;;
39094;SDS011;24840;47.508;19.376;2023-05-19T02:17:43;5.05;;;3.25;;
39094;SDS011;24840;47.508;19.376;2023-05-19T02:20:15;7.07;;;3.22;;
39094;SDS011;24840;47.508;19.376;2023-05-19T02:22:42;10.52;;;3.80;;
39094;SDS011;24840;47.508;19.376;2023-05-19T02:25:08;3.92;;;3.42;;
39094;SDS011;24840;47.508;19.376;2023-05-19T02:27:34;7.95;;;3.08;;
39094;SDS011;24840;47.508;19.376;2023-05-19T02:30:02;4.55;;;3.67;;
39094;SDS011;24840;47.508;19.376;2023-05-19T02:32:28;10.20;;;4.00;;
39094;SDS011;24840;47.508;19.376;2023-05-19T02:34:54;8.82;;;4.68;;
39094;SDS011;24840;47.508;19.376;2023-05-19T02:37:20;8.43;;;3.72;;
39094;SDS011;24840;47.508;19.376;2023-05-19T02:39:52;5.05;;;3.63;;
39094;SDS011;24840;47.508;19.376;2023-05-19T02:42:18;4.80;;;2.83;;
39094;SDS011;24840;47.508;19.376;2023-05-19T02:44:44;6.10;;;3.05;;
39094;SDS011;24840;47.508;19.376;2023-05-19T02:47:11;6.35;;;2.95;;
39094;SDS011;24840;47.508;19.376;2023-05-19T02:49:37;6.28;;;3.22;;
39094;SDS011;24840;47.508;19.376;2023-05-19T02:52:03;5.05;;;3.78;;
39094;SDS011;24840;47.508;19.376;2023-05-19T02:54:30;12.35;;;4.40;;
39094;SDS011;24840;47.508;19.376;2023-05-19T02:56:55;3.60;;;3.28;;
39094;SDS011;24840;47.508;19.376;2023-05-19T02:59:21;4.03;;;3.63;;
39094;SDS011;24840;47.508;19.376;2023-05-19T03:01:47;4.10;;;3.70;;
39094;SDS011;24840;47.508;19.376;2023-05-19T03:04:13;5.00;;;3.75;;
39094;SDS011;24840;47.508;19.376;2023-05-19T03:06:39;4.20;;;3.58;;
39094;SDS011;24840;47.508;19.376;2023-05-19T03:09:06;6.72;;;3.90;;
39094;SDS011;24840;47.508;19.376;2023-05-19T03:11:32;4.70;;;2.67;;
39094;SDS011;24840;47.508;19.376;2023-05-19T03:13:58;7.38;;;3.78;;
39094;SDS011;24840;47.508;19.376;2023-05-19T03:16:23;5.88;;;3.25;;
39094;SDS011;24840;47.508;19.376;2023-05-19T03:18:49;4.20;;;3.15;;
39094;SDS011;24840;47.508;19.376;2023-05-19T03:21:15;5.22;;;2.78;;
39094;SDS011;24840;47.508;19.376;2023-05-19T03:23:41;5.22;;;3.05;;
39094;SDS011;24840;47.508;19.376;2023-05-19T03:26:06;12.32;;;3.15;;
39094;SDS011;24840;47.508;19.376;2023-05-19T03:28:32;7.65;;;3.83;;
39094;SDS011;24840;47.508;19.376;2023-05-19T03:30:58;7.28;;;3.25;;
39094;SDS011;24840;47.508;19.376;2023-05-19T03:33:23;4.18;;;3.67;;
39094;SDS011;24840;47.508;19.376;2023-05-19T03:35:51;5.05;;;2.88;;
39094;SDS011;24840;47.508;19.376;2023-05-19T03:38:17;4.03;;;3.67;;
39094;SDS011;24840;47.508;19.376;2023-05-19T03:40:43;5.28;;;3.35;;
39094;SDS011;24840;47.508;19.376;2023-05-19T03:43:09;6.47;;;3.55;;
39094;SDS011;24840;47.508;19.376;2023-05-19T03:45:34;5.43;;;3.75;;
39094;SDS011;24840;47.508;19.376;2023-05-19T03:48:00;4.95;;;3.40;;
39094;SDS011;24840;47.508;19.376;2023-05-19T03:50:26;4.95;;;3.80;;
39094;SDS011;24840;47.508;19.376;2023-05-19T03:52:53;4.18;;;3.78;;
39094;SDS011;24840;47.508;19.376;2023-05-19T03:55:19;4.80;;;3.78;;
39094;SDS011;24840;47.508;19.376;2023-05-19T03:57:45;6.97;;;3.88;;
39094;SDS011;24840;47.508;19.376;2023-05-19T04:00:11;5.50;;;4.20;;
39094;SDS011;24840;47.508;19.376;2023-05-19T04:02:37;5.20;;;3.85;;
39094;SDS011;24840;47.508;19.376;2023-05-19T04:05:03;6.68;;;3.85;;
39094;SDS011;24840;47.508;19.376;2023-05-19T04:07:29;6.72;;;4.43;;
39094;SDS011;24840;47.508;19.376;2023-05-19T04:09:56;8.57;;;5.13;;
39094;SDS011;24840;47.508;19.376;2023-05-19T04:12:21;8.70;;;6.45;;
39094;SDS011;24840;47.508;19.376;2023-05-19T04:14:47;11.07;;;5.40;;
39094;SDS011;24840;47.508;19.376;2023-05-19T04:17:13;7.90;;;5.85;;
39094;SDS011;24840;47.508;19.376;2023-05-19T04:19:39;6.47;;;5.70;;
39094;SDS011;24840;47.508;19.376;2023-05-19T04:22:05;8.38;;;6.03;;
39094;SDS011;24840;47.508;19.376;2023-05-19T04:24:31;7.63;;;6.05;;
39094;SDS011;24840;47.508;19.376;2023-05-19T04:26:57;7.63;;;5.00;;
39094;SDS011;24840;47.508;19.376;2023-05-19T04:29:26;8.75;;;5.80;;
39094;SDS011;24840;47.508;19.376;2023-05-19T04:31:57;11.00;;;7.32;;
39094;SDS011;24840;47.508;19.376;2023-05-19T04:34:24;10.25;;;7.07;;
39094;SDS011;24840;47.508;19.376;2023-05-19T04:36:52;13.18;;;9.18;;
39094;SDS011;24840;47.508;19.376;2023-05-19T04:39:19;16.30;;;11.73;;
39094;SDS011;24840;47.508;19.376;2023-05-19T04:41:45;15.13;;;11.13;;
39094;SDS011;24840;47.508;19.376;2023-05-19T04:44:11;16.85;;;11.57;;
39094;SDS011;24840;47.508;19.376;2023-05-19T04:46:37;20.65;;;12.65;;
39094;SDS011;24840;47.508;19.376;2023-05-19T04:49:03;21.77;;;14.02;;
39094;SDS011;24840;47.508;19.376;2023-05-19T04:51:29;25.52;;;14.63;;
39094;SDS011;24840;47.508;19.376;2023-05-19T04:53:55;20.52;;;14.25;;
39094;SDS011;24840;47.508;19.376;2023-05-19T04:56:21;17.27;;;12.90;;
39094;SDS011;24840;47.508;19.376;2023-05-19T04:58:48;19.20;;;13.95;;
39094;SDS011;24840;47.508;19.376;2023-05-19T05:01:13;24.25;;;13.90;;
39094;SDS011;24840;47.508;19.376;2023-05-19T05:03:40;19.60;;;13.80;;
39094;SDS011;24840;47.508;19.376;2023-05-19T05:06:06;18.05;;;13.23;;
39094;SDS011;24840;47.508;19.376;2023-05-19T05:08:32;18.58;;;13.27;;
39094;SDS011;24840;47.508;19.376;2023-05-19T05:10:58;17.45;;;13.63;;
39094;SDS011;24840;47.508;19.376;2023-05-19T05:13:24;19.17;;;13.23;;
39094;SDS011;24840;47.508;19.376;2023-05-19T05:15:50;16.17;;;12.20;;
39094;SDS011;24840;47.508;19.376;2023-05-19T05:18:16;18.65;;;13.02;;
39094;SDS011;24840;47.508;19.376;2023-05-19T05:20:42;15.50;;;11.60;;
39094;SDS011;24840;47.508;19.376;2023-05-19T05:23:10;17.30;;;14.05;;
39094;SDS011;24840;47.508;19.376;2023-05-19T05:25:42;16.48;;;12.40;;
39094;SDS011;24840;47.508;19.376;2023-05-19T05:28:08;18.45;;;13.20;;
39094;SDS011;24840;47.508;19.376;2023-05-19T05:30:34;14.20;;;11.18;;
39094;SDS011;24840;47.508;19.376;2023-05-19T05:33:00;14.20;;;11.60;;
39094;SDS011;24840;47.508;19.376;2023-05-19T05:35:26;14.32;;;12.80;;
39094;SDS011;24840;47.508;19.376;2023-05-19T05:37:52;16.35;;;11.02;;
39094;SDS011;24840;47.508;19.376;2023-05-19T05:40:18;13.98;;;11.18;;
39094;SDS011;24840;47.508;19.376;2023-05-19T05:42:44;16.02;;;11.80;;
39094;SDS011;24840;47.508;19.376;2023-05-19T05:45:10;13.63;;;11.30;;
39094;SDS011;24840;47.508;19.376;2023-05-19T05:47:36;15.27;;;11.65;;
39094;SDS011;24840;47.508;19.376;2023-05-19T05:50:04;19.65;;;12.10;;
39094;SDS011;24840;47.508;19.376;2023-05-19T05:52:31;13.52;;;10.95;;
39094;SDS011;24840;47.508;19.376;2023-05-19T05:54:58;11.73;;;10.45;;
39094;SDS011;24840;47.508;19.376;2023-05-19T05:57:24;14.27;;;11.75;;
39094;SDS011;24840;47.508;19.376;2023-05-19T05:59:50;11.60;;;10.20;;
39094;SDS011;24840;47.508;19.376;2023-05-19T06:02:16;12.70;;;10.50;;
39094;SDS011;24840;47.508;19.376;2023-05-19T06:04:42;10.70;;;9.60;;
39094;SDS011;24840;47.508;19.376;2023-05-19T06:07:08;12.43;;;10.65;;
39094;SDS011;24840;47.508;19.376;2023-05-19T06:09:34;11.98;;;10.75;;
39094;SDS011;24840;47.508;19.376;2023-05-19T06:12:00;13.10;;;9.95;;
39094;SDS011;24840;47.508;19.376;2023-05-19T06:14:26;10.65;;;9.35;;
39094;SDS011;24840;47.508;19.376;2023-05-19T06:16:51;13.32;;;10.75;;
39094;SDS011;24840;47.508;19.376;2023-05-19T06:19:17;11.65;;;10.50;;
39094;SDS011;24840;47.508;19.376;2023-05-19T06:21:46;16.33;;;10.32;;
39094;SDS011;24840;47.508;19.376;2023-05-19T06:24:12;13.75;;;11.35;;
39094;SDS011;24840;47.508;19.376;2023-05-19T06:26:37;11.25;;;10.02;;
39094;SDS011;24840;47.508;19.376;2023-05-19T06:29:03;10.23;;;9.23;;
39094;SDS011;24840;47.508;19.376;2023-05-19T06:31:29;9.57;;;8.65;;
39094;SDS011;24840;47.508;19.376;2023-05-19T06:33:55;8.93;;;8.02;;
39094;SDS011;24840;47.508;19.376;2023-05-19T06:36:21;13.05;;;8.48;;
39094;SDS011;24840;47.508;19.376;2023-05-19T06:38:46;9.95;;;7.72;;
39094;SDS011;24840;47.508;19.376;2023-05-19T06:41:12;13.13;;;7.85;;
39094;SDS011;24840;47.508;19.376;2023-05-19T06:43:38;8.73;;;7.88;;
39094;SDS011;24840;47.508;19.376;2023-05-19T06:46:03;10.82;;;7.47;;
39094;SDS011;24840;47.508;19.376;2023-05-19T06:48:29;8.70;;;7.80;;
39094;SDS011;24840;47.508;19.376;2023-05-19T06:50:55;8.40;;;7.32;;
39094;SDS011;24840;47.508;19.376;2023-05-19T06:53:21;9.85;;;8.82;;
39094;SDS011;24840;47.508;19.376;2023-05-19T06:55:46;11.68;;;7.90;;
39094;SDS011;24840;47.508;19.376;2023-05-19T06:58:15;9.48;;;8.57;;
39094;SDS011;24840;47.508;19.376;2023-05-19T07:00:41;9.25;;;7.45;;
39094;SDS011;24840;47.508;19.376;2023-05-19T07:03:07;9.65;;;7.57;;
39094;SDS011;24840;47.508;19.376;2023-05-19T07:05:33;8.65;;;7.75;;
39094;SDS011;24840;47.508;19.376;2023-05-19T07:07:59;13.95;;;9.20;;
39094;SDS011;24840;47.508;19.376;2023-05-19T07:10:25;13.18;;;8.90;;
39094;SDS011;24840;47.508;19.376;2023-05-19T07:12:52;10.90;;;9.63;;
39094;SDS011;24840;47.508;19.376;2023-05-19T07:15:18;13.32;;;8.43;;
39094;SDS011;24840;47.508;19.376;2023-05-19T07:17:43;10.23;;;7.88;;
39094;SDS011;24840;47.508;19.376;2023-05-19T07:20:09;7.28;;;6.57;;
39094;SDS011;24840;47.508;19.376;2023-05-19T07:22:36;9.20;;;7.55;;
39094;SDS011;24840;47.508;19.376;2023-05-19T07:25:03;17.00;;;8.68;;
39094;SDS011;24840;47.508;19.376;2023-05-19T07:27:31;9.93;;;8.45;;
39094;SDS011;24840;47.508;19.376;2023-05-19T07:29:57;11.40;;;8.23;;
39094;SDS011;24840;47.508;19.376;2023-05-19T07:32:22;8.00;;;7.20;;
39094;SDS011;24840;47.508;19.376;2023-05-19T07:34:49;13.73;;;6.90;;
39094;SDS011;24840;47.508;19.376;2023-05-19T07:37:14;51.42;;;10.15;;
39094;SDS011;24840;47.508;19.376;2023-05-19T07:39:40;9.90;;;7.20;;
39094;SDS011;24840;47.508;19.376;2023-05-19T07:42:06;8.85;;;7.20;;
39094;SDS011;24840;47.508;19.376;2023-05-19T07:44:32;6.93;;;6.03;;
39094;SDS011;24840;47.508;19.376;2023-05-19T07:46:58;10.77;;;6.53;;
39094;SDS011;24840;47.508;19.376;2023-05-19T07:49:25;11.27;;;6.85;;
39094;SDS011;24840;47.508;19.376;2023-05-19T07:51:51;7.35;;;6.65;;
39094;SDS011;24840;47.508;19.376;2023-05-19T07:54:17;8.60;;;5.10;;
39094;SDS011;24840;47.508;19.376;2023-05-19T07:56:43;9.13;;;4.70;;
39094;SDS011;24840;47.508;19.376;2023-05-19T07:59:08;4.40;;;4.00;;
39094;SDS011;24840;47.508;19.376;2023-05-19T08:01:34;7.00;;;4.50;;
39094;SDS011;24840;47.508;19.376;2023-05-19T08:04:00;12.50;;;5.22;;
39094;SDS011;24840;47.508;19.376;2023-05-19T08:06:26;8.90;;;4.90;;
39094;SDS011;24840;47.508;19.376;2023-05-19T08:08:53;8.85;;;4.78;;
39094;SDS011;24840;47.508;19.376;2023-05-19T08:11:19;5.72;;;5.10;;
39094;SDS011;24840;47.508;19.376;2023-05-19T08:13:45;6.88;;;4.00;;
39094;SDS011;24840;47.508;19.376;2023-05-19T08:16:13;4.53;;;3.67;;
39094;SDS011;24840;47.508;19.376;2023-05-19T08:18:39;9.80;;;3.80;;
39094;SDS011;24840;47.508;19.376;2023-05-19T08:21:05;5.18;;;4.13;;
39094;SDS011;24840;47.508;19.376;2023-05-19T08:23:31;6.80;;;3.15;;
39094;SDS011;24840;47.508;19.376;2023-05-19T08:25:57;6.18;;;3.78;;
39094;SDS011;24840;47.508;19.376;2023-05-19T08:28:23;6.95;;;3.63;;
39094;SDS011;24840;47.508;19.376;2023-05-19T08:30:49;7.55;;;3.58;;
39094;SDS011;24840;47.508;19.376;2023-05-19T08:33:16;3.65;;;3.35;;
39094;SDS011;24840;47.508;19.376;2023-05-19T08:35:44;3.65;;;3.35;;
39094;SDS011;24840;47.508;19.376;2023-05-19T08:38:10;6.22;;;3.33;;
39094;SDS011;24840;47.508;19.376;2023-05-19T08:40:36;6.18;;;3.35;;
39094;SDS011;24840;47.508;19.376;2023-05-19T08:43:05;3.50;;;3.20;;
39094;SDS011;24840;47.508;19.376;2023-05-19T08:45:31;4.13;;;3.25;;
39094;SDS011;24840;47.508;19.376;2023-05-19T08:47:58;13.32;;;3.60;;
39094;SDS011;24840;47.508;19.376;2023-05-19T08:50:26;3.42;;;3.13;;
39094;SDS011;24840;47.508;19.376;2023-05-19T08:52:54;3.90;;;3.25;;
39094;SDS011;24840;47.508;19.376;2023-05-19T08:58:03;5.30;;;3.08;;
39094;SDS011;24840;47.508;19.376;2023-05-19T09:00:29;5.65;;;2.95;;
39094;SDS011;24840;47.508;19.376;2023-05-19T09:02:55;3.33;;;3.03;;
39094;SDS011;24840;47.508;19.376;2023-05-19T09:05:21;3.85;;;3.22;;
39094;SDS011;24840;47.508;19.376;2023-05-19T09:07:47;5.43;;;3.20;;
39094;SDS011;24840;47.508;19.376;2023-05-19T09:10:13;3.47;;;2.75;;
39094;SDS011;24840;47.508;19.376;2023-05-19T09:12:44;5.50;;;2.78;;
39094;SDS011;24840;47.508;19.376;2023-05-19T09:15:17;5.80;;;3.83;;
39094;SDS011;24840;47.508;19.376;2023-05-19T09:17:46;3.20;;;2.88;;
39094;SDS011;24840;47.508;19.376;2023-05-19T09:20:12;8.98;;;2.80;;
39094;SDS011;24840;47.508;19.376;2023-05-19T09:22:44;4.55;;;3.03;;
39094;SDS011;24840;47.508;19.376;2023-05-19T09:25:45;5.07;;;3.72;;
39094;SDS011;24840;47.508;19.376;2023-05-19T09:30:38;19.15;;;5.53;;
39094;SDS011;24840;47.508;19.376;2023-05-19T09:33:04;13.13;;;3.70;;
39094;SDS011;24840;47.508;19.376;2023-05-19T09:35:33;9.13;;;3.13;;
39094;SDS011;24840;47.508;19.376;2023-05-19T09:38:00;7.00;;;3.20;;
39094;SDS011;24840;47.508;19.376;2023-05-19T09:40:26;5.28;;;3.00;;
39094;SDS011;24840;47.508;19.376;2023-05-19T09:42:54;5.63;;;3.78;;
39094;SDS011;24840;47.508;19.376;2023-05-19T09:45:20;6.60;;;3.70;;
39094;SDS011;24840;47.508;19.376;2023-05-19T09:47:46;3.42;;;2.72;;
39094;SDS011;24840;47.508;19.376;2023-05-19T09:50:12;4.30;;;3.67;;
39094;SDS011;24840;47.508;19.376;2023-05-19T09:52:38;9.18;;;3.67;;
39094;SDS011;24840;47.508;19.376;2023-05-19T09:55:11;4.07;;;3.08;;
39094;SDS011;24840;47.508;19.376;2023-05-19T09:57:37;4.80;;;2.88;;
39094;SDS011;24840;47.508;19.376;2023-05-19T10:00:07;3.90;;;2.70;;
39094;SDS011;24840;47.508;19.376;2023-05-19T10:02:43;4.10;;;3.22;;
39094;SDS011;24840;47.508;19.376;2023-05-19T10:05:14;6.90;;;3.53;;
39094;SDS011;24840;47.508;19.376;2023-05-19T10:07:44;7.03;;;3.83;;
39094;SDS011;24840;47.508;19.376;2023-05-19T10:10:12;5.80;;;3.53;;
39094;SDS011;24840;47.508;19.376;2023-05-19T10:12:39;3.60;;;2.33;;
39094;SDS011;24840;47.508;19.376;2023-05-19T10:15:09;5.05;;;3.53;;
39094;SDS011;24840;47.508;19.376;2023-05-19T10:17:44;6.78;;;3.20;;
39094;SDS011;24840;47.508;19.376;2023-05-19T10:20:14;3.20;;;2.92;;
39094;SDS011;24840;47.508;19.376;2023-05-19T10:22:41;5.67;;;3.40;;
39094;SDS011;24840;47.508;19.376;2023-05-19T10:25:09;6.60;;;2.78;;
39094;SDS011;24840;47.508;19.376;2023-05-19T10:27:36;6.82;;;3.53;;
39094;SDS011;24840;47.508;19.376;2023-05-19T10:30:14;7.30;;;2.45;;
39094;SDS011;24840;47.508;19.376;2023-05-19T10:32:43;5.75;;;2.75;;
39094;SDS011;24840;47.508;19.376;2023-05-19T10:35:27;6.82;;;3.20;;
39094;SDS011;24840;47.508;19.376;2023-05-19T10:41:03;6.50;;;3.10;;
39094;SDS011;24840;47.508;19.376;2023-05-19T10:46:03;3.72;;;2.60;;
39094;SDS011;24840;47.508;19.376;2023-05-19T10:48:33;3.90;;;2.60;;
39094;SDS011;24840;47.508;19.376;2023-05-19T10:51:02;4.43;;;2.70;;
39094;SDS011;24840;47.508;19.376;2023-05-19T10:53:31;4.70;;;2.80;;
39094;SDS011;24840;47.508;19.376;2023-05-19T10:55:59;4.95;;;2.22;;
39094;SDS011;24840;47.508;19.376;2023-05-19T10:58:37;2.90;;;2.10;;
39094;SDS011;24840;47.508;19.376;2023-05-19T11:01:16;3.60;;;2.47;;
39094;SDS011;24840;47.508;19.376;2023-05-19T11:03:44;3.93;;;3.07;;
39094;SDS011;24840;47.508;19.376;2023-05-19T11:06:18;3.65;;;2.83;;
39094;SDS011;24840;47.508;19.376;2023-05-19T11:08:54;2.78;;;2.55;;
39094;SDS011;24840;47.508;19.376;2023-05-19T11:11:21;4.32;;;2.88;;
39094;SDS011;24840;47.508;19.376;2023-05-19T11:13:53;3.95;;;2.70;;
39094;SDS011;24840;47.508;19.376;2023-05-19T11:18:58;2.92;;;2.20;;
39094;SDS011;24840;47.508;19.376;2023-05-19T11:21:46;5.65;;;2.55;;
39094;SDS011;24840;47.508;19.376;2023-05-19T11:24:52;5.15;;;2.50;;
39094;SDS011;24840;47.508;19.376;2023-05-19T11:29:47;5.03;;;2.17;;
39094;SDS011;24840;47.508;19.376;2023-05-19T11:32:14;8.00;;;2.60;;
39094;SDS011;24840;47.508;19.376;2023-05-19T11:34:40;9.63;;;3.17;;
39094;SDS011;24840;47.508;19.376;2023-05-19T11:37:06;2.90;;;2.63;;
39094;SDS011;24840;47.508;19.376;2023-05-19T11:39:33;2.58;;;2.38;;
39094;SDS011;24840;47.508;19.376;2023-05-19T11:41:59;2.53;;;2.10;;
39094;SDS011;24840;47.508;19.376;2023-05-19T11:44:25;3.25;;;2.10;;
39094;SDS011;24840;47.508;19.376;2023-05-19T11:46:51;5.90;;;2.63;;
39094;SDS011;24840;47.508;19.376;2023-05-19T11:49:17;4.50;;;2.47;;
39094;SDS011;24840;47.508;19.376;2023-05-19T11:51:43;8.13;;;2.42;;
39094;SDS011;24840;47.508;19.376;2023-05-19T11:54:12;4.07;;;2.13;;
39094;SDS011;24840;47.508;19.376;2023-05-19T11:56:41;3.60;;;2.20;;
39094;SDS011;24840;47.508;19.376;2023-05-19T11:59:07;3.80;;;1.90;;
39094;SDS011;24840;47.508;19.376;2023-05-19T12:01:33;5.13;;;1.77;;
39094;SDS011;24840;47.508;19.376;2023-05-19T12:04:00;8.60;;;2.60;;
39094;SDS011;24840;47.508;19.376;2023-05-19T12:06:32;8.85;;;2.90;;
39094;SDS011;24840;47.508;19.376;2023-05-19T12:08:58;4.40;;;2.35;;
39094;SDS011;24840;47.508;19.376;2023-05-19T12:11:24;2.33;;;2.13;;
39094;SDS011;24840;47.508;19.376;2023-05-19T12:13:54;3.95;;;2.20;;
39094;SDS011;24840;47.508;19.376;2023-05-19T12:16:30;4.70;;;2.72;;
39094;SDS011;24840;47.508;19.376;2023-05-19T12:18:58;3.58;;;3.22;;
39094;SDS011;24840;47.508;19.376;2023-05-19T12:21:23;2.70;;;2.50;;
39094;SDS011;24840;47.508;19.376;2023-05-19T12:23:49;2.65;;;1.98;;
39094;SDS011;24840;47.508;19.376;2023-05-19T12:26:15;2.67;;;2.45;;
39094;SDS011;24840;47.508;19.376;2023-05-19T12:28:43;3.17;;;2.13;;
39094;SDS011;24840;47.508;19.376;2023-05-19T12:31:10;4.57;;;2.33;;
39094;SDS011;24840;47.508;19.376;2023-05-19T12:33:36;3.70;;;2.08;;
39094;SDS011;24840;47.508;19.376;2023-05-19T12:36:04;1.90;;;1.80;;
39094;SDS011;24840;47.508;19.376;2023-05-19T12:38:31;2.42;;;2.00;;
39094;SDS011;24840;47.508;19.376;2023-05-19T12:40:58;3.40;;;2.08;;
39094;SDS011;24840;47.508;19.376;2023-05-19T12:43:24;2.38;;;2.17;;
39094;SDS011;24840;47.508;19.376;2023-05-19T12:45:49;2.30;;;2.00;;
39094;SDS011;24840;47.508;19.376;2023-05-19T12:48:16;2.35;;;2.15;;
39094;SDS011;24840;47.508;19.376;2023-05-19T12:50:42;2.78;;;2.53;;
39094;SDS011;24840;47.508;19.376;2023-05-19T12:53:12;3.00;;;2.80;;
39094;SDS011;24840;47.508;19.376;2023-05-19T12:55:42;2.53;;;2.22;;
39094;SDS011;24840;47.508;19.376;2023-05-19T12:58:12;2.90;;;2.70;;
39094;SDS011;24840;47.508;19.376;2023-05-19T13:00:43;3.22;;;2.90;;
39094;SDS011;24840;47.508;19.376;2023-05-19T13:03:14;3.10;;;2.20;;
39094;SDS011;24840;47.508;19.376;2023-05-19T13:05:42;2.55;;;2.22;;
39094;SDS011;24840;47.508;19.376;2023-05-19T13:08:13;3.10;;;2.40;;
39094;SDS011;24840;47.508;19.376;2023-05-19T13:10:47;4.30;;;2.30;;
39094;SDS011;24840;47.508;19.376;2023-05-19T13:13:13;2.90;;;2.45;;
39094;SDS011;24840;47.508;19.376;2023-05-19T13:15:40;2.72;;;1.88;;
39094;SDS011;24840;47.508;19.376;2023-05-19T13:18:07;3.05;;;2.35;;
39094;SDS011;24840;47.508;19.376;2023-05-19T13:20:34;4.32;;;2.60;;
39094;SDS011;24840;47.508;19.376;2023-05-19T13:23:01;6.88;;;3.00;;
39094;SDS011;24840;47.508;19.376;2023-05-19T13:25:27;5.03;;;2.38;;
39094;SDS011;24840;47.508;19.376;2023-05-19T13:27:53;2.33;;;2.15;;
39094;SDS011;24840;47.508;19.376;2023-05-19T13:30:19;7.10;;;2.67;;
39094;SDS011;24840;47.508;19.376;2023-05-19T13:32:46;2.72;;;2.53;;
39094;SDS011;24840;47.508;19.376;2023-05-19T13:35:12;6.43;;;3.20;;
39094;SDS011;24840;47.508;19.376;2023-05-19T13:37:40;2.78;;;2.58;;
39094;SDS011;24840;47.508;19.376;2023-05-19T13:40:06;2.53;;;2.38;;
39094;SDS011;24840;47.508;19.376;2023-05-19T13:42:32;3.60;;;3.00;;
39094;SDS011;24840;47.508;19.376;2023-05-19T13:44:59;4.45;;;3.03;;
39094;SDS011;24840;47.508;19.376;2023-05-19T13:47:25;4.30;;;2.97;;
39094;SDS011;24840;47.508;19.376;2023-05-19T13:49:51;3.03;;;2.53;;
39094;SDS011;24840;47.508;19.376;2023-05-19T13:52:17;3.88;;;3.58;;
39094;SDS011;24840;47.508;19.376;2023-05-19T13:54:44;4.15;;;2.80;;
39094;SDS011;24840;47.508;19.376;2023-05-19T13:57:14;2.97;;;2.35;;
39094;SDS011;24840;47.508;19.376;2023-05-19T13:59:55;3.65;;;2.72;;
39094;SDS011;24840;47.508;19.376;2023-05-19T14:02:30;6.68;;;2.70;;
39094;SDS011;24840;47.508;19.376;2023-05-19T14:05:06;4.43;;;2.90;;
39094;SDS011;24840;47.508;19.376;2023-05-19T14:07:32;3.13;;;2.55;;
39094;SDS011;24840;47.508;19.376;2023-05-19T14:10:01;2.92;;;2.72;;
39094;SDS011;24840;47.508;19.376;2023-05-19T14:12:29;4.03;;;2.90;;
39094;SDS011;24840;47.508;19.376;2023-05-19T14:14:55;4.13;;;3.05;;
39094;SDS011;24840;47.508;19.376;2023-05-19T14:17:20;3.70;;;2.90;;
39094;SDS011;24840;47.508;19.376;2023-05-19T14:19:46;10.07;;;3.75;;
39094;SDS011;24840;47.508;19.376;2023-05-19T14:22:11;4.40;;;3.40;;
39094;SDS011;24840;47.508;19.376;2023-05-19T14:24:37;3.90;;;2.80;;
39094;SDS011;24840;47.508;19.376;2023-05-19T14:27:03;3.25;;;2.83;;
39094;SDS011;24840;47.508;19.376;2023-05-19T14:29:29;3.80;;;3.00;;
39094;SDS011;24840;47.508;19.376;2023-05-19T14:31:57;4.18;;;3.10;;
39094;SDS011;24840;47.508;19.376;2023-05-19T14:34:23;5.63;;;2.95;;
39094;SDS011;24840;47.508;19.376;2023-05-19T14:36:49;3.50;;;3.20;;
39094;SDS011;24840;47.508;19.376;2023-05-19T14:39:14;2.60;;;2.35;;
39094;SDS011;24840;47.508;19.376;2023-05-19T14:41:40;6.43;;;4.88;;
39094;SDS011;24840;47.508;19.376;2023-05-19T14:44:06;5.63;;;3.28;;
39094;SDS011;24840;47.508;19.376;2023-05-19T14:46:32;6.18;;;3.03;;
39094;SDS011;24840;47.508;19.376;2023-05-19T14:48:57;3.97;;;3.00;;
39094;SDS011;24840;47.508;19.376;2023-05-19T14:51:23;4.43;;;2.83;;
39094;SDS011;24840;47.508;19.376;2023-05-19T14:53:49;4.55;;;3.00;;
39094;SDS011;24840;47.508;19.376;2023-05-19T14:56:14;7.88;;;3.28;;
39094;SDS011;24840;47.508;19.376;2023-05-19T14:58:40;2.92;;;2.47;;
39094;SDS011;24840;47.508;19.376;2023-05-19T15:01:06;7.32;;;3.55;;
39094;SDS011;24840;47.508;19.376;2023-05-19T15:03:31;3.38;;;3.08;;
39094;SDS011;24840;47.508;19.376;2023-05-19T15:05:57;3.10;;;2.83;;
39094;SDS011;24840;47.508;19.376;2023-05-19T15:08:23;68.68;;;7.65;;